createdAt,value
2022-07-31T00:01:38.241Z,2.95
2022-07-31T00:06:41.293Z,2.47
2022-07-31T00:11:43.842Z,2.20
2022-07-31T00:16:45.355Z,2.63
2022-07-31T00:21:46.838Z,2.97
2022-07-31T00:26:48.250Z,2.10
2022-07-31T00:31:54.351Z,2.60
2022-07-31T00:36:55.794Z,2.50
2022-07-31T00:41:57.421Z,2.10
2022-07-31T00:46:58.979Z,2.60
2022-07-31T00:52:02.320Z,2.30
2022-07-31T00:57:04.267Z,2.53
2022-07-31T01:02:08.310Z,2.55
2022-07-31T01:07:09.739Z,2.10
2022-07-31T01:12:14.332Z,2.47
2022-07-31T01:17:16.677Z,2.40
2022-07-31T01:22:36.934Z,2.45
2022-07-31T01:27:50.129Z,2.63
2022-07-31T01:32:51.950Z,2.55
2022-07-31T01:38:07.563Z,3.20
2022-07-31T01:43:12.431Z,2.60
2022-07-31T01:48:14.567Z,2.60
2022-07-31T01:53:21.331Z,3.17
2022-07-31T01:58:23.577Z,3.45
2022-07-31T02:03:43.786Z,3.00
2022-07-31T02:08:47.586Z,3.28
2022-07-31T02:13:49.573Z,3.92
2022-07-31T02:18:52.262Z,3.42
2022-07-31T02:23:53.810Z,3.42
2022-07-31T02:28:55.688Z,4.47
2022-07-31T02:33:57.126Z,3.35
2022-07-31T02:38:58.871Z,3.75
2022-07-31T02:44:00.479Z,3.17
2022-07-31T02:49:02.352Z,3.28
2022-07-31T02:54:04.242Z,2.92
2022-07-31T02:59:05.837Z,2.80
2022-07-31T03:04:07.316Z,2.70
2022-07-31T03:09:08.859Z,3.20
2022-07-31T03:14:11.800Z,2.95
2022-07-31T03:19:13.394Z,3.35
2022-07-31T03:24:15.227Z,3.50
2022-07-31T03:29:42.333Z,3.33
2022-07-31T03:34:38.030Z,3.05
2022-07-31T03:39:39.522Z,3.30
2022-07-31T03:44:41.347Z,3.25
2022-07-31T03:49:42.849Z,3.88
2022-07-31T03:54:44.332Z,3.15
2022-07-31T03:59:48.671Z,3.00
2022-07-31T04:04:50.197Z,3.00
2022-07-31T04:09:51.665Z,3.10
2022-07-31T04:14:53.372Z,3.35
2022-07-31T04:19:54.841Z,3.03
2022-07-31T04:24:56.270Z,2.80
2022-07-31T04:29:57.837Z,3.05
2022-07-31T04:34:59.245Z,3.22
2022-07-31T04:40:00.759Z,3.28
2022-07-31T04:45:02.186Z,2.78
2022-07-31T04:50:04.144Z,3.40
2022-07-31T04:55:05.841Z,3.33
2022-07-31T05:00:08.649Z,3.60
2022-07-31T05:05:10.074Z,2.85
2022-07-31T05:10:31.478Z,3.08
2022-07-31T05:15:32.960Z,3.65
2022-07-31T05:20:34.396Z,2.85
2022-07-31T05:25:35.808Z,2.45
2022-07-31T05:30:37.259Z,2.72
2022-07-31T05:35:38.674Z,3.08
2022-07-31T05:40:44.821Z,3.17
2022-07-31T05:45:48.940Z,3.67
2022-07-31T05:50:50.870Z,3.33
2022-07-31T05:55:52.416Z,3.83
2022-07-31T06:00:53.810Z,3.42
2022-07-31T06:05:55.751Z,4.03
2022-07-31T06:10:57.649Z,3.30
2022-07-31T06:15:59.068Z,3.92
2022-07-31T06:21:00.464Z,3.72
2022-07-31T06:26:01.993Z,2.70
2022-07-31T06:31:04.819Z,4.05
2022-07-31T06:36:06.373Z,3.33
2022-07-31T06:41:07.790Z,3.83
2022-07-31T06:46:13.015Z,3.40
2022-07-31T06:51:30.380Z,3.58
2022-07-31T06:56:33.306Z,4.32
2022-07-31T07:01:34.858Z,3.70
2022-07-31T07:06:36.327Z,4.22
2022-07-31T07:11:37.738Z,4.10
2022-07-31T07:16:39.178Z,4.60
2022-07-31T07:21:40.615Z,5.13
2022-07-31T07:26:42.061Z,5.15
2022-07-31T07:31:43.463Z,4.30
2022-07-31T07:36:45.003Z,4.70
2022-07-31T07:41:46.433Z,4.88
2022-07-31T07:46:47.963Z,5.03
2022-07-31T07:51:58.929Z,4.75
2022-07-31T07:57:01.881Z,4.80
2022-07-31T08:02:03.659Z,4.93
2022-07-31T08:07:05.336Z,4.70
2022-07-31T08:12:07.192Z,4.72
2022-07-31T08:17:11.471Z,5.15
2022-07-31T08:22:15.327Z,5.22
2022-07-31T08:27:39.981Z,4.95
2022-07-31T08:32:42.215Z,5.30
2022-07-31T08:37:51.094Z,5.70
2022-07-31T08:43:19.333Z,6.10
2022-07-31T08:48:28.619Z,7.15
2022-07-31T08:53:31.045Z,6.95
2022-07-31T08:58:37.200Z,6.78
2022-07-31T09:03:40.632Z,6.50
2022-07-31T09:08:42.086Z,8.10
2022-07-31T09:14:02.213Z,8.13
2022-07-31T09:19:52.453Z,8.90
2022-07-31T09:24:29.038Z,8.40
2022-07-31T09:29:38.264Z,9.88
2022-07-31T09:39:51.876Z,11.98
2022-07-31T09:44:54.059Z,11.77
2022-07-31T09:50:03.685Z,12.55
2022-07-31T09:55:15.556Z,13.45
2022-07-31T10:00:18.176Z,13.45
2022-07-31T10:05:20.495Z,14.10
2022-07-31T10:10:22.348Z,13.95
2022-07-31T10:15:25.556Z,13.55
2022-07-31T10:20:27.719Z,13.88
2022-07-31T10:25:29.716Z,14.60
2022-07-31T10:30:31.123Z,13.93
2022-07-31T10:35:34.190Z,10.68
2022-07-31T10:40:39.534Z,9.10
2022-07-31T10:45:49.403Z,7.70
2022-07-31T10:51:04.290Z,5.88
2022-07-31T10:56:10.819Z,5.15
2022-07-31T11:01:12.462Z,5.28
2022-07-31T11:06:21.468Z,3.50
2022-07-31T11:11:32.973Z,4.22
2022-07-31T11:16:34.466Z,4.30
2022-07-31T11:21:39.630Z,4.43
2022-07-31T11:26:53.537Z,5.00
2022-07-31T11:31:55.095Z,4.97
2022-07-31T11:36:56.764Z,5.13
2022-07-31T11:42:02.203Z,5.55
2022-07-31T11:47:04.426Z,4.82
2022-07-31T11:52:31.011Z,4.75
2022-07-31T11:57:51.250Z,4.20
2022-07-31T12:02:54.146Z,3.95
2022-07-31T12:07:55.671Z,3.78
2022-07-31T12:12:57.121Z,3.80
2022-07-31T12:18:02.999Z,4.20
2022-07-31T12:23:05.452Z,4.20
2022-07-31T12:28:08.193Z,4.53
2022-07-31T12:33:10.785Z,4.55
2022-07-31T12:38:38.145Z,4.28
2022-07-31T12:43:51.183Z,4.60
2022-07-31T12:48:54.070Z,3.60
2022-07-31T12:53:55.543Z,3.40
2022-07-31T12:58:56.934Z,4.32
2022-07-31T13:03:58.755Z,4.20
2022-07-31T13:09:00.961Z,3.50
2022-07-31T13:14:02.444Z,3.15
2022-07-31T13:19:05.385Z,4.60
2022-07-31T13:24:09.100Z,4.32
2022-07-31T13:29:10.759Z,4.90
2022-07-31T13:34:12.589Z,5.05
2022-07-31T13:39:14.025Z,5.22
2022-07-31T13:44:15.531Z,4.38
2022-07-31T13:49:17.066Z,4.50
2022-07-31T13:54:18.562Z,3.67
2022-07-31T13:59:20.294Z,3.67
2022-07-31T14:04:23.872Z,3.67
2022-07-31T14:09:25.495Z,3.42
2022-07-31T14:14:26.946Z,3.20
2022-07-31T14:19:29.920Z,3.05
2022-07-31T14:24:31.413Z,2.90
2022-07-31T14:29:32.876Z,2.67
2022-07-31T14:34:37.688Z,2.60
2022-07-31T14:39:41.346Z,2.30
2022-07-31T14:44:44.566Z,2.40
2022-07-31T14:50:09.895Z,2.13
2022-07-31T14:55:07.788Z,2.10
2022-07-31T15:00:14.998Z,2.28
2022-07-31T15:06:41.630Z,2.40
2022-07-31T15:10:38.017Z,2.95
2022-07-31T15:15:39.462Z,2.80
2022-07-31T15:20:40.955Z,3.00
2022-07-31T15:25:42.434Z,3.70
2022-07-31T15:30:43.948Z,3.33
2022-07-31T15:35:46.676Z,3.03
2022-07-31T15:40:49.941Z,3.60
2022-07-31T15:45:51.518Z,3.38
2022-07-31T15:50:52.954Z,3.60
2022-07-31T15:55:54.473Z,3.42
2022-07-31T16:00:56.159Z,3.20
2022-07-31T16:05:57.750Z,3.58
2022-07-31T16:10:59.289Z,3.97
2022-07-31T16:16:00.739Z,4.18
2022-07-31T16:21:02.164Z,4.35
2022-07-31T16:26:03.594Z,4.53
2022-07-31T16:31:05.048Z,4.38
2022-07-31T16:36:06.509Z,4.47
2022-07-31T16:41:07.967Z,4.40
2022-07-31T16:46:09.626Z,3.92
2022-07-31T16:51:11.031Z,4.20
2022-07-31T16:56:12.819Z,3.90
2022-07-31T17:01:57.668Z,3.92
2022-07-31T17:06:38.062Z,4.57
2022-07-31T17:11:39.644Z,3.80
2022-07-31T17:16:47.112Z,3.63
2022-07-31T17:21:49.351Z,3.42
2022-07-31T17:26:51.381Z,3.20
2022-07-31T17:31:52.784Z,3.10
2022-07-31T17:36:54.808Z,3.20
2022-07-31T17:41:56.289Z,3.05
2022-07-31T17:46:58.244Z,2.90
2022-07-31T17:52:00.464Z,2.72
2022-07-31T17:57:02.539Z,2.60
2022-07-31T18:02:04.819Z,2.60
2022-07-31T18:07:07.138Z,2.60
2022-07-31T18:12:13.449Z,3.22
2022-07-31T18:17:16.696Z,2.90
2022-07-31T18:22:18.200Z,3.45
2022-07-31T18:27:19.750Z,3.15
2022-07-31T18:32:21.451Z,3.80
2022-07-31T18:37:22.847Z,3.72
2022-07-31T18:42:24.579Z,3.50
2022-07-31T18:47:26.553Z,3.38
2022-07-31T18:52:28.073Z,3.55
2022-07-31T18:57:30.596Z,4.40
2022-07-31T19:02:32.661Z,4.57
2022-07-31T19:07:37.317Z,4.80
2022-07-31T19:12:38.876Z,5.45
2022-07-31T19:17:43.868Z,5.75
2022-07-31T19:22:45.830Z,5.82
2022-07-31T19:27:50.468Z,5.75
2022-07-31T19:32:52.019Z,6.00
2022-07-31T19:37:57.179Z,6.50
2022-07-31T19:42:59.714Z,6.65
2022-07-31T19:48:02.315Z,7.15
2022-07-31T19:53:03.811Z,6.47
2022-07-31T19:58:06.924Z,5.95
2022-07-31T20:03:08.857Z,5.43
2022-07-31T20:08:10.530Z,6.38
2022-07-31T20:13:11.993Z,5.20
2022-07-31T20:18:23.582Z,4.05
2022-07-31T20:23:31.014Z,3.42
2022-07-31T20:28:32.554Z,3.20
2022-07-31T20:33:34.587Z,2.80
2022-07-31T20:38:36.057Z,2.70
2022-07-31T20:43:37.568Z,3.60
2022-07-31T20:48:39.059Z,2.53
2022-07-31T20:53:40.490Z,2.95
2022-07-31T20:58:42.044Z,2.50
2022-07-31T21:03:43.501Z,2.28
2022-07-31T21:08:45.165Z,2.47
2022-07-31T21:13:46.588Z,2.83
2022-07-31T21:18:50.584Z,2.92
2022-07-31T21:23:53.075Z,3.13
2022-07-31T21:28:54.821Z,2.70
2022-07-31T21:33:56.434Z,2.40
2022-07-31T21:38:58.043Z,2.97
2022-07-31T21:44:00.026Z,2.72
2022-07-31T21:49:01.658Z,2.50
2022-07-31T21:54:03.681Z,2.75
2022-07-31T21:59:05.078Z,2.55
2022-07-31T22:04:06.461Z,2.47
2022-07-31T22:09:07.903Z,2.63
2022-07-31T22:14:09.349Z,2.92
2022-07-31T22:19:11.081Z,2.60
2022-07-31T22:24:12.615Z,2.80
2022-07-31T22:29:14.110Z,3.28
2022-07-31T22:34:37.136Z,3.25
2022-07-31T22:39:39.605Z,3.63
2022-07-31T22:44:41.077Z,3.63
2022-07-31T22:49:43.607Z,3.05
2022-07-31T22:54:45.653Z,3.25
2022-07-31T22:59:47.543Z,3.17
2022-07-31T23:04:49.008Z,3.67
2022-07-31T23:09:50.434Z,3.20
2022-07-31T23:14:51.853Z,3.15
2022-07-31T23:19:54.424Z,3.22
2022-07-31T23:24:57.571Z,3.40
2022-07-31T23:29:59.366Z,3.45
2022-07-31T23:35:00.876Z,3.50
2022-07-31T23:40:02.325Z,3.38
2022-07-31T23:45:04.652Z,3.30
2022-07-31T23:50:06.820Z,3.00
2022-07-31T23:55:08.484Z,2.85
